sensor_id;sensor_type;location;lat;lon;timestamp;pressure;altitude;pressure_sealevel;temperature;humidity
80777;BME280;70169;51.262;6.336;2023-07-20T00:00:01;100854.75;;;16.82;76.09
80777;BME280;70169;51.262;6.336;2023-07-20T00:02:16;100859.06;;;16.83;76.26
80777;BME280;70169;51.262;6.336;2023-07-20T00:04:31;100845.47;;;16.84;76.48
80777;BME280;70169;51.262;6.336;2023-07-20T00:06:47;100850.59;;;16.86;76.41
80777;BME280;70169;51.262;6.336;2023-07-20T00:09:02;100848.94;;;16.85;76.25
80777;BME280;70169;51.262;6.336;2023-07-20T00:11:18;100854.50;;;16.83;76.41
80777;BME280;70169;51.262;6.336;2023-07-20T00:13:33;100851.03;;;16.83;76.49
80777;BME280;70169;51.262;6.336;2023-07-20T00:15:48;100842.91;;;16.77;76.17
80777;BME280;70169;51.262;6.336;2023-07-20T00:18:05;100843.75;;;16.78;76.38
80777;BME280;70169;51.262;6.336;2023-07-20T00:20:23;100844.78;;;16.77;76.77
80777;BME280;70169;51.262;6.336;2023-07-20T00:22:38;100841.78;;;16.73;76.95
80777;BME280;70169;51.262;6.336;2023-07-20T00:24:54;100849.88;;;16.78;77.46
80777;BME280;70169;51.262;6.336;2023-07-20T00:27:09;100843.75;;;16.78;77.49
80777;BME280;70169;51.262;6.336;2023-07-20T00:29:24;100851.75;;;16.78;77.75
80777;BME280;70169;51.262;6.336;2023-07-20T00:31:40;100852.56;;;16.78;77.65
80777;BME280;70169;51.262;6.336;2023-07-20T00:33:55;100843.97;;;16.76;77.57
80777;BME280;70169;51.262;6.336;2023-07-20T00:36:10;100843.41;;;16.74;77.70
80777;BME280;70169;51.262;6.336;2023-07-20T00:38:26;100835.06;;;16.71;77.72
80777;BME280;70169;51.262;6.336;2023-07-20T00:40:41;100848.16;;;16.72;77.78
80777;BME280;70169;51.262;6.336;2023-07-20T00:42:56;100840.63;;;16.69;78.13
80777;BME280;70169;51.262;6.336;2023-07-20T00:45:12;100845.41;;;16.67;78.22
80777;BME280;70169;51.262;6.336;2023-07-20T00:47:27;100847.50;;;16.65;78.24
80777;BME280;70169;51.262;6.336;2023-07-20T00:49:43;100845.53;;;16.61;78.34
80777;BME280;70169;51.262;6.336;2023-07-20T00:52:00;100844.50;;;16.62;78.70
80777;BME280;70169;51.262;6.336;2023-07-20T00:54:16;100847.16;;;16.62;78.83
80777;BME280;70169;51.262;6.336;2023-07-20T00:56:31;100847.97;;;16.62;78.81
80777;BME280;70169;51.262;6.336;2023-07-20T00:58:47;100836.72;;;16.60;78.86
80777;BME280;70169;51.262;6.336;2023-07-20T01:01:02;100839.72;;;16.64;78.81
80777;BME280;70169;51.262;6.336;2023-07-20T01:03:18;100838.94;;;16.63;78.59
80777;BME280;70169;51.262;6.336;2023-07-20T01:05:39;100839.16;;;16.62;78.71
80777;BME280;70169;51.262;6.336;2023-07-20T01:08:03;100843.91;;;16.59;78.63
80777;BME280;70169;51.262;6.336;2023-07-20T01:12:52;100848.91;;;16.56;78.70
80777;BME280;70169;51.262;6.336;2023-07-20T01:15:08;100848.34;;;16.54;78.48
80777;BME280;70169;51.262;6.336;2023-07-20T01:17:24;100844.84;;;16.53;78.57
80777;BME280;70169;51.262;6.336;2023-07-20T01:19:39;100848.34;;;16.54;78.78
80777;BME280;70169;51.262;6.336;2023-07-20T01:32:29;100834.44;;;16.40;79.14
80777;BME280;70169;51.262;6.336;2023-07-20T01:34:47;100832.47;;;16.35;79.22
80777;BME280;70169;51.262;6.336;2023-07-20T01:37:05;100828.91;;;16.30;79.11
80777;BME280;70169;51.262;6.336;2023-07-20T01:39:21;100833.69;;;16.28;79.12
80777;BME280;70169;51.262;6.336;2023-07-20T01:41:37;100834.84;;;16.20;79.46
80777;BME280;70169;51.262;6.336;2023-07-20T01:43:57;100823.47;;;16.13;79.49
80777;BME280;70169;51.262;6.336;2023-07-20T01:46:13;100830.44;;;16.14;79.69
80777;BME280;70169;51.262;6.336;2023-07-20T01:48:28;100834.97;;;16.13;80.15
80777;BME280;70169;51.262;6.336;2023-07-20T01:50:44;100832.53;;;16.12;79.76
80777;BME280;70169;51.262;6.336;2023-07-20T01:53:00;100828.25;;;16.11;79.94
80777;BME280;70169;51.262;6.336;2023-07-20T01:55:15;100838.56;;;16.07;80.03
80777;BME280;70169;51.262;6.336;2023-07-20T01:57:30;100842.50;;;16.04;80.13
80777;BME280;70169;51.262;6.336;2023-07-20T01:59:46;100836.81;;;16.01;80.09
80777;BME280;70169;51.262;6.336;2023-07-20T02:02:01;100829.53;;;15.96;80.32
80777;BME280;70169;51.262;6.336;2023-07-20T02:04:16;100841.00;;;15.97;80.28
80777;BME280;70169;51.262;6.336;2023-07-20T02:06:31;100842.84;;;15.96;80.20
80777;BME280;70169;51.262;6.336;2023-07-20T02:08:47;100839.63;;;15.94;80.43
80777;BME280;70169;51.262;6.336;2023-07-20T02:11:02;100844.13;;;15.94;80.51
80777;BME280;70169;51.262;6.336;2023-07-20T02:13:18;100842.28;;;15.94;80.59
80777;BME280;70169;51.262;6.336;2023-07-20T02:15:33;100836.59;;;15.91;80.61
80777;BME280;70169;51.262;6.336;2023-07-20T02:17:48;100836.94;;;15.94;80.62
80777;BME280;70169;51.262;6.336;2023-07-20T02:20:04;100837.75;;;15.95;80.67
80777;BME280;70169;51.262;6.336;2023-07-20T02:22:20;100839.38;;;15.96;80.63
80777;BME280;70169;51.262;6.336;2023-07-20T02:24:35;100843.09;;;15.95;80.84
80777;BME280;70169;51.262;6.336;2023-07-20T02:26:50;100831.63;;;15.94;80.78
80777;BME280;70169;51.262;6.336;2023-07-20T02:29:06;100836.72;;;15.96;80.93
80777;BME280;70169;51.262;6.336;2023-07-20T02:31:23;100843.41;;;15.98;80.98
80777;BME280;70169;51.262;6.336;2023-07-20T02:33:38;100833.44;;;15.94;80.97
80777;BME280;70169;51.262;6.336;2023-07-20T02:35:53;100835.66;;;15.97;80.86
80777;BME280;70169;51.262;6.336;2023-07-20T02:38:09;100836.13;;;15.94;80.85
80777;BME280;70169;51.262;6.336;2023-07-20T02:40:24;100831.50;;;15.89;80.84
80777;BME280;70169;51.262;6.336;2023-07-20T02:42:39;100829.53;;;15.84;80.99
80777;BME280;70169;51.262;6.336;2023-07-20T02:44:54;100837.53;;;15.84;81.11
80777;BME280;70169;51.262;6.336;2023-07-20T02:47:10;100829.44;;;15.79;80.87
80777;BME280;70169;51.262;6.336;2023-07-20T02:49:26;100841.69;;;15.80;80.99
80777;BME280;70169;51.262;6.336;2023-07-20T02:51:41;100836.59;;;15.79;81.13
80777;BME280;70169;51.262;6.336;2023-07-20T02:53:57;100833.34;;;15.77;80.48
80777;BME280;70169;51.262;6.336;2023-07-20T02:56:12;100835.88;;;15.72;80.84
80777;BME280;70169;51.262;6.336;2023-07-20T02:58:27;100841.53;;;15.75;81.18
80777;BME280;70169;51.262;6.336;2023-07-20T03:00:43;100848.31;;;15.78;81.28
80777;BME280;70169;51.262;6.336;2023-07-20T03:02:59;100849.69;;;15.80;81.36
80777;BME280;70169;51.262;6.336;2023-07-20T03:05:14;100856.19;;;15.84;81.37
80777;BME280;70169;51.262;6.336;2023-07-20T03:07:31;100854.91;;;15.87;81.26
80777;BME280;70169;51.262;6.336;2023-07-20T03:09:47;100857.34;;;15.89;81.19
80777;BME280;70169;51.262;6.336;2023-07-20T03:12:03;100853.28;;;15.86;80.92
80777;BME280;70169;51.262;6.336;2023-07-20T03:14:19;100856.06;;;15.79;81.13
80777;BME280;70169;51.262;6.336;2023-07-20T03:16:35;100862.78;;;15.82;81.36
80777;BME280;70169;51.262;6.336;2023-07-20T03:18:50;100856.41;;;15.83;81.61
80777;BME280;70169;51.262;6.336;2023-07-20T03:21:07;100861.28;;;15.86;81.56
80777;BME280;70169;51.262;6.336;2023-07-20T03:23:23;100868.81;;;15.89;81.58
80777;BME280;70169;51.262;6.336;2023-07-20T03:25:38;100862.44;;;15.90;81.65
80777;BME280;70169;51.262;6.336;2023-07-20T03:27:54;100872.75;;;15.98;81.74
80777;BME280;70169;51.262;6.336;2023-07-20T03:30:09;100874.16;;;16.01;81.60
80777;BME280;70169;51.262;6.336;2023-07-20T03:32:26;100877.97;;;16.05;81.55
80777;BME280;70169;51.262;6.336;2023-07-20T03:34:41;100880.16;;;16.08;81.54
80777;BME280;70169;51.262;6.336;2023-07-20T03:36:56;100877.50;;;16.08;81.46
80777;BME280;70169;51.262;6.336;2023-07-20T03:39:12;100876.22;;;16.11;81.56
80777;BME280;70169;51.262;6.336;2023-07-20T03:41:27;100875.78;;;16.14;81.23
80777;BME280;70169;51.262;6.336;2023-07-20T03:43:42;100872.06;;;16.15;81.44
80777;BME280;70169;51.262;6.336;2023-07-20T03:45:57;100875.31;;;16.17;81.34
80777;BME280;70169;51.262;6.336;2023-07-20T03:48:15;100877.75;;;16.18;81.63
80777;BME280;70169;51.262;6.336;2023-07-20T03:50:30;100880.41;;;16.18;81.39
80777;BME280;70169;51.262;6.336;2023-07-20T03:52:45;100888.88;;;16.15;81.18
80777;BME280;70169;51.262;6.336;2023-07-20T03:55:01;100878.22;;;16.15;81.35
80777;BME280;70169;51.262;6.336;2023-07-20T03:57:16;100887.47;;;16.13;81.19
80777;BME280;70169;51.262;6.336;2023-07-20T03:59:32;100892.56;;;16.14;81.16
80777;BME280;70169;51.262;6.336;2023-07-20T04:01:48;100890.25;;;16.18;81.11
80777;BME280;70169;51.262;6.336;2023-07-20T04:04:07;100885.50;;;16.20;81.13
80777;BME280;70169;51.262;6.336;2023-07-20T04:06:22;100894.88;;;16.22;80.77
80777;BME280;70169;51.262;6.336;2023-07-20T04:08:38;100892.81;;;16.25;81.50
80777;BME280;70169;51.262;6.336;2023-07-20T04:10:53;100893.63;;;16.25;80.85
80777;BME280;70169;51.262;6.336;2023-07-20T04:13:08;100892.81;;;16.25;80.99
80777;BME280;70169;51.262;6.336;2023-07-20T04:15:24;100898.16;;;16.25;80.85
80777;BME280;70169;51.262;6.336;2023-07-20T04:17:40;100899.19;;;16.23;80.46
80777;BME280;70169;51.262;6.336;2023-07-20T04:19:55;100894.66;;;16.24;80.81
80777;BME280;70169;51.262;6.336;2023-07-20T04:22:11;100897.94;;;16.26;80.97
80777;BME280;70169;51.262;6.336;2023-07-20T04:24:26;100907.28;;;16.29;81.14
80777;BME280;70169;51.262;6.336;2023-07-20T04:26:41;100908.94;;;16.30;81.09
80777;BME280;70169;51.262;6.336;2023-07-20T04:28:57;100897.09;;;16.26;80.86
80777;BME280;70169;51.262;6.336;2023-07-20T04:31:15;100914.25;;;16.30;80.91
80777;BME280;70169;51.262;6.336;2023-07-20T04:33:31;100898.72;;;16.27;80.88
80777;BME280;70169;51.262;6.336;2023-07-20T04:38:05;100907.28;;;16.29;80.77
80777;BME280;70169;51.262;6.336;2023-07-20T04:40:21;100912.41;;;16.30;81.04
80777;BME280;70169;51.262;6.336;2023-07-20T04:42:36;100909.16;;;16.28;80.67
80777;BME280;70169;51.262;6.336;2023-07-20T04:44:51;100909.41;;;16.27;80.93
80777;BME280;70169;51.262;6.336;2023-07-20T04:47:07;100906.50;;;16.28;80.95
80777;BME280;70169;51.262;6.336;2023-07-20T04:49:23;100914.97;;;16.25;81.22
80777;BME280;70169;51.262;6.336;2023-07-20T04:51:39;100921.44;;;16.29;81.08
80777;BME280;70169;51.262;6.336;2023-07-20T04:53:54;100914.72;;;16.27;81.10
80777;BME280;70169;51.262;6.336;2023-07-20T04:56:09;100927.59;;;16.30;81.14
80777;BME280;70169;51.262;6.336;2023-07-20T04:58:25;100913.44;;;16.29;81.37
80777;BME280;70169;51.262;6.336;2023-07-20T05:00:41;100914.59;;;16.33;81.20
80777;BME280;70169;51.262;6.336;2023-07-20T05:02:56;100910.06;;;16.34;81.02
80777;BME280;70169;51.262;6.336;2023-07-20T05:05:12;100917.03;;;16.35;80.91
80777;BME280;70169;51.262;6.336;2023-07-20T05:07:27;100914.03;;;16.31;80.85
80777;BME280;70169;51.262;6.336;2023-07-20T05:09:42;100914.13;;;16.36;80.98
80777;BME280;70169;51.262;6.336;2023-07-20T05:11:58;100927.25;;;16.38;81.19
80777;BME280;70169;51.262;6.336;2023-07-20T05:14:13;100916.56;;;16.38;81.23
80777;BME280;70169;51.262;6.336;2023-07-20T05:16:28;100916.44;;;16.45;81.09
80777;BME280;70169;51.262;6.336;2023-07-20T05:18:44;100918.31;;;16.44;80.94
80777;BME280;70169;51.262;6.336;2023-07-20T05:20:59;100917.00;;;16.47;80.97
80777;BME280;70169;51.262;6.336;2023-07-20T05:23:18;100924.00;;;16.48;81.01
80777;BME280;70169;51.262;6.336;2023-07-20T05:25:35;100925.25;;;16.45;80.82
80777;BME280;70169;51.262;6.336;2023-07-20T05:27:51;100931.19;;;16.47;81.42
80777;BME280;70169;51.262;6.336;2023-07-20T05:30:07;100937.56;;;16.46;80.99
80777;BME280;70169;51.262;6.336;2023-07-20T05:32:22;100934.56;;;16.43;80.75
80777;BME280;70169;51.262;6.336;2023-07-20T05:34:38;100929.22;;;16.43;80.95
80777;BME280;70169;51.262;6.336;2023-07-20T05:36:53;100931.31;;;16.40;81.05
80777;BME280;70169;51.262;6.336;2023-07-20T05:39:08;100939.31;;;16.40;81.11
80777;BME280;70169;51.262;6.336;2023-07-20T05:41:24;100932.69;;;16.43;81.21
80777;BME280;70169;51.262;6.336;2023-07-20T05:43:39;100933.84;;;16.47;81.09
80777;BME280;70169;51.262;6.336;2023-07-20T05:45:54;100933.97;;;16.52;81.04
80777;BME280;70169;51.262;6.336;2023-07-20T05:48:10;100935.94;;;16.57;81.04
80777;BME280;70169;51.262;6.336;2023-07-20T05:50:27;100936.03;;;16.62;80.92
80777;BME280;70169;51.262;6.336;2023-07-20T05:52:43;100940.09;;;16.65;80.62
80777;BME280;70169;51.262;6.336;2023-07-20T05:54:58;100941.13;;;16.64;80.70
80777;BME280;70169;51.262;6.336;2023-07-20T05:57:13;100938.00;;;16.67;80.53
80777;BME280;70169;51.262;6.336;2023-07-20T05:59:29;100928.84;;;16.63;80.25
80777;BME280;70169;51.262;6.336;2023-07-20T06:01:44;100927.00;;;16.63;80.10
80777;BME280;70169;51.262;6.336;2023-07-20T06:04:00;100922.94;;;16.61;80.18
80777;BME280;70169;51.262;6.336;2023-07-20T06:06:15;100935.09;;;16.68;80.48
80777;BME280;70169;51.262;6.336;2023-07-20T06:08:31;100933.00;;;16.70;80.16
80777;BME280;70169;51.262;6.336;2023-07-20T06:10:50;100942.19;;;16.74;80.25
80777;BME280;70169;51.262;6.336;2023-07-20T06:13:06;100945.97;;;16.78;80.23
80777;BME280;70169;51.262;6.336;2023-07-20T06:15:31;100951.88;;;16.81;80.28
80777;BME280;70169;51.262;6.336;2023-07-20T06:17:46;100950.28;;;16.80;79.94
80777;BME280;70169;51.262;6.336;2023-07-20T06:20:02;100945.75;;;16.80;79.86
80777;BME280;70169;51.262;6.336;2023-07-20T06:22:17;100952.16;;;16.91;79.45
80777;BME280;70169;51.262;6.336;2023-07-20T06:24:32;100955.84;;;16.90;79.48
80777;BME280;70169;51.262;6.336;2023-07-20T06:26:48;100958.28;;;16.91;79.15
80777;BME280;70169;51.262;6.336;2023-07-20T06:29:03;100958.28;;;16.91;79.76
80777;BME280;70169;51.262;6.336;2023-07-20T06:31:19;100948.31;;;16.87;79.12
80777;BME280;70169;51.262;6.336;2023-07-20T06:33:34;100959.59;;;16.89;79.32
80777;BME280;70169;51.262;6.336;2023-07-20T06:35:52;100957.81;;;16.83;78.96
80777;BME280;70169;51.262;6.336;2023-07-20T06:38:08;100958.75;;;16.88;78.89
80777;BME280;70169;51.262;6.336;2023-07-20T06:40:23;100960.50;;;16.94;79.76
80777;BME280;70169;51.262;6.336;2023-07-20T06:42:38;100955.47;;;16.98;79.24
80777;BME280;70169;51.262;6.336;2023-07-20T06:44:53;100962.31;;;17.06;78.63
80777;BME280;70169;51.262;6.336;2023-07-20T06:47:09;100959.03;;;17.16;78.21
80777;BME280;70169;51.262;6.336;2023-07-20T06:49:26;100963.53;;;17.27;77.64
80777;BME280;70169;51.262;6.336;2023-07-20T06:51:41;100955.81;;;17.42;78.32
80777;BME280;70169;51.262;6.336;2023-07-20T06:53:56;100964.03;;;17.70;77.69
80777;BME280;70169;51.262;6.336;2023-07-20T06:56:12;100958.00;;;17.91;77.59
80777;BME280;70169;51.262;6.336;2023-07-20T06:58:27;100959.53;;;18.04;75.68
80777;BME280;70169;51.262;6.336;2023-07-20T07:00:43;100959.28;;;18.06;75.55
80777;BME280;70169;51.262;6.336;2023-07-20T07:02:58;100971.88;;;18.05;75.32
80777;BME280;70169;51.262;6.336;2023-07-20T07:05:13;100972.66;;;17.89;74.87
80777;BME280;70169;51.262;6.336;2023-07-20T07:07:30;100982.59;;;17.76;74.57
80777;BME280;70169;51.262;6.336;2023-07-20T07:09:46;100974.53;;;17.59;75.17
80777;BME280;70169;51.262;6.336;2023-07-20T07:12:01;100979.69;;;17.49;75.46
80777;BME280;70169;51.262;6.336;2023-07-20T07:14:16;100982.44;;;17.37;75.91
80777;BME280;70169;51.262;6.336;2023-07-20T07:16:32;100982.22;;;17.27;75.66
80777;BME280;70169;51.262;6.336;2023-07-20T07:18:49;100986.31;;;17.18;76.17
80777;BME280;70169;51.262;6.336;2023-07-20T07:21:05;100988.09;;;17.12;76.15
80777;BME280;70169;51.262;6.336;2023-07-20T07:23:20;100989.50;;;17.03;76.26
80777;BME280;70169;51.262;6.336;2023-07-20T07:25:36;100985.91;;;16.97;76.56
80777;BME280;70169;51.262;6.336;2023-07-20T07:27:53;100976.19;;;16.91;76.50
80777;BME280;70169;51.262;6.336;2023-07-20T07:30:08;100976.94;;;17.03;77.06
80777;BME280;70169;51.262;6.336;2023-07-20T07:32:24;100981.44;;;17.14;76.69
80777;BME280;70169;51.262;6.336;2023-07-20T07:34:39;100981.88;;;17.23;76.04
80777;BME280;70169;51.262;6.336;2023-07-20T07:36:54;100981.13;;;17.40;74.87
80777;BME280;70169;51.262;6.336;2023-07-20T07:39:10;100987.56;;;17.56;74.12
80777;BME280;70169;51.262;6.336;2023-07-20T07:41:25;100982.28;;;17.73;73.82
80777;BME280;70169;51.262;6.336;2023-07-20T07:43:41;100994.88;;;17.89;73.43
80777;BME280;70169;51.262;6.336;2023-07-20T07:45:56;100979.06;;;18.04;72.97
80777;BME280;70169;51.262;6.336;2023-07-20T07:48:12;100989.84;;;18.27;73.35
80777;BME280;70169;51.262;6.336;2023-07-20T07:50:29;100990.88;;;18.43;72.30
80777;BME280;70169;51.262;6.336;2023-07-20T07:52:45;100992.34;;;18.50;71.50
80777;BME280;70169;51.262;6.336;2023-07-20T07:55:01;101001.91;;;18.46;71.34
80777;BME280;70169;51.262;6.336;2023-07-20T07:57:16;101003.38;;;18.37;70.33
80777;BME280;70169;51.262;6.336;2023-07-20T07:59:32;101008.56;;;18.27;70.92
80777;BME280;70169;51.262;6.336;2023-07-20T08:01:51;101014.81;;;18.15;70.89
80777;BME280;70169;51.262;6.336;2023-07-20T08:04:07;101018.22;;;18.11;71.43
80777;BME280;70169;51.262;6.336;2023-07-20T08:06:23;101019.28;;;18.10;71.22
80777;BME280;70169;51.262;6.336;2023-07-20T08:08:39;101019.94;;;18.17;70.76
80777;BME280;70169;51.262;6.336;2023-07-20T08:10:55;101013.19;;;18.31;70.33
80777;BME280;70169;51.262;6.336;2023-07-20T08:13:10;101015.28;;;18.46;70.19
80777;BME280;70169;51.262;6.336;2023-07-20T08:15:25;101014.22;;;18.64;70.19
80777;BME280;70169;51.262;6.336;2023-07-20T08:17:41;101012.31;;;18.82;69.67
80777;BME280;70169;51.262;6.336;2023-07-20T08:19:57;101014.25;;;19.03;70.25
80777;BME280;70169;51.262;6.336;2023-07-20T08:22:13;101005.03;;;19.16;69.09
80777;BME280;70169;51.262;6.336;2023-07-20T08:24:28;101004.06;;;19.27;68.96
80777;BME280;70169;51.262;6.336;2023-07-20T08:26:43;101021.56;;;19.35;68.42
80777;BME280;70169;51.262;6.336;2023-07-20T08:28:58;101016.28;;;19.40;67.83
80777;BME280;70169;51.262;6.336;2023-07-20T08:31:14;101015.78;;;19.43;67.08
80777;BME280;70169;51.262;6.336;2023-07-20T08:33:29;101019.00;;;19.45;66.26
80777;BME280;70169;51.262;6.336;2023-07-20T08:35:48;101012.66;;;19.52;66.72
80777;BME280;70169;51.262;6.336;2023-07-20T08:38:04;101015.13;;;19.58;66.18
80777;BME280;70169;51.262;6.336;2023-07-20T08:40:20;101010.06;;;19.62;65.48
80777;BME280;70169;51.262;6.336;2023-07-20T08:42:37;101012.53;;;19.68;64.84
80777;BME280;70169;51.262;6.336;2023-07-20T08:44:53;101011.31;;;19.76;65.02
80777;BME280;70169;51.262;6.336;2023-07-20T08:47:10;101016.47;;;19.83;64.63
80777;BME280;70169;51.262;6.336;2023-07-20T08:49:27;101013.81;;;19.88;63.39
80777;BME280;70169;51.262;6.336;2023-07-20T08:51:43;101009.63;;;19.97;63.86
80777;BME280;70169;51.262;6.336;2023-07-20T08:54:00;101011.31;;;20.09;63.42
80777;BME280;70169;51.262;6.336;2023-07-20T08:56:16;101008.97;;;20.17;63.38
80777;BME280;70169;51.262;6.336;2023-07-20T08:58:33;101001.22;;;20.21;62.85
80777;BME280;70169;51.262;6.336;2023-07-20T09:00:50;101006.13;;;20.34;63.11
80777;BME280;70169;51.262;6.336;2023-07-20T09:03:06;101005.91;;;20.41;62.63
80777;BME280;70169;51.262;6.336;2023-07-20T09:05:23;101013.09;;;20.30;61.66
80777;BME280;70169;51.262;6.336;2023-07-20T09:07:40;101007.56;;;20.10;62.20
80777;BME280;70169;51.262;6.336;2023-07-20T09:09:57;101010.59;;;19.86;62.33
80777;BME280;70169;51.262;6.336;2023-07-20T09:12:14;101008.13;;;19.57;63.01
80777;BME280;70169;51.262;6.336;2023-07-20T09:14:30;101009.53;;;19.38;64.35
80777;BME280;70169;51.262;6.336;2023-07-20T09:16:47;101013.38;;;19.20;64.87
80777;BME280;70169;51.262;6.336;2023-07-20T09:19:03;101004.44;;;19.14;65.29
80777;BME280;70169;51.262;6.336;2023-07-20T09:21:18;101011.88;;;19.29;65.67
80777;BME280;70169;51.262;6.336;2023-07-20T09:23:35;101006.66;;;19.44;66.32
80777;BME280;70169;51.262;6.336;2023-07-20T09:25:51;101003.59;;;19.58;64.90
80777;BME280;70169;51.262;6.336;2023-07-20T09:28:06;101006.97;;;19.75;64.74
80777;BME280;70169;51.262;6.336;2023-07-20T09:30:25;101009.78;;;19.85;63.09
80777;BME280;70169;51.262;6.336;2023-07-20T09:32:46;101014.19;;;19.97;62.21
80777;BME280;70169;51.262;6.336;2023-07-20T09:35:01;101006.97;;;20.02;60.70
80777;BME280;70169;51.262;6.336;2023-07-20T09:37:23;101008.66;;;20.14;60.47
80777;BME280;70169;51.262;6.336;2023-07-20T09:39:43;101009.06;;;20.28;60.23
80777;BME280;70169;51.262;6.336;2023-07-20T09:42:02;100996.50;;;20.38;59.60
80777;BME280;70169;51.262;6.336;2023-07-20T09:44:19;101004.66;;;20.54;58.43
80777;BME280;70169;51.262;6.336;2023-07-20T09:46:42;100997.50;;;20.65;58.52
80777;BME280;70169;51.262;6.336;2023-07-20T09:48:57;100996.22;;;20.77;57.80
80777;BME280;70169;51.262;6.336;2023-07-20T09:51:12;100996.25;;;20.88;58.78
80777;BME280;70169;51.262;6.336;2023-07-20T09:53:28;100997.88;;;20.89;58.83
80777;BME280;70169;51.262;6.336;2023-07-20T09:55:45;100997.59;;;20.80;59.25
80777;BME280;70169;51.262;6.336;2023-07-20T09:58:01;100999.03;;;20.61;58.86
80777;BME280;70169;51.262;6.336;2023-07-20T10:00:18;101001.13;;;20.43;59.88
80777;BME280;70169;51.262;6.336;2023-07-20T10:02:33;100990.22;;;20.22;60.07
80777;BME280;70169;51.262;6.336;2023-07-20T10:04:53;100985.25;;;20.04;59.75
80777;BME280;70169;51.262;6.336;2023-07-20T10:07:10;100987.91;;;19.99;60.47
80777;BME280;70169;51.262;6.336;2023-07-20T10:09:28;100983.66;;;20.03;60.84
80777;BME280;70169;51.262;6.336;2023-07-20T10:11:50;100985.84;;;20.11;58.07
80777;BME280;70169;51.262;6.336;2023-07-20T10:14:06;100991.78;;;20.18;59.11
80777;BME280;70169;51.262;6.336;2023-07-20T10:16:34;100990.03;;;20.34;60.78
80777;BME280;70169;51.262;6.336;2023-07-20T10:18:51;100995.13;;;20.31;59.12
80777;BME280;70169;51.262;6.336;2023-07-20T10:21:10;100984.88;;;20.28;59.35
80777;BME280;70169;51.262;6.336;2023-07-20T10:23:28;100986.56;;;20.34;59.85
80777;BME280;70169;51.262;6.336;2023-07-20T10:25:44;100985.25;;;20.42;59.08
80777;BME280;70169;51.262;6.336;2023-07-20T10:28:01;100985.84;;;20.54;58.96
80777;BME280;70169;51.262;6.336;2023-07-20T10:30:17;100981.63;;;20.63;57.99
80777;BME280;70169;51.262;6.336;2023-07-20T10:32:34;100979.56;;;20.75;57.78
80777;BME280;70169;51.262;6.336;2023-07-20T10:34:55;100980.97;;;20.88;56.92
80777;BME280;70169;51.262;6.336;2023-07-20T10:40:24;100975.13;;;21.12;55.88
80777;BME280;70169;51.262;6.336;2023-07-20T10:42:40;100969.75;;;21.12;55.62
80777;BME280;70169;51.262;6.336;2023-07-20T10:44:55;100972.47;;;21.17;55.95
80777;BME280;70169;51.262;6.336;2023-07-20T10:47:12;100967.66;;;21.29;55.48
80777;BME280;70169;51.262;6.336;2023-07-20T10:49:27;100965.78;;;21.40;54.93
80777;BME280;70169;51.262;6.336;2023-07-20T10:51:47;100967.13;;;21.43;55.29
80777;BME280;70169;51.262;6.336;2023-07-20T10:54:03;100957.47;;;21.47;55.41
80777;BME280;70169;51.262;6.336;2023-07-20T10:56:22;100953.16;;;21.36;54.01
80777;BME280;70169;51.262;6.336;2023-07-20T10:58:39;100959.56;;;21.19;54.35
80777;BME280;70169;51.262;6.336;2023-07-20T11:01:03;100951.69;;;20.97;53.64
80777;BME280;70169;51.262;6.336;2023-07-20T11:03:27;100947.88;;;20.77;54.48
80777;BME280;70169;51.262;6.336;2023-07-20T11:05:42;100955.63;;;20.69;54.83
80777;BME280;70169;51.262;6.336;2023-07-20T11:07:58;100950.81;;;20.71;54.93
80777;BME280;70169;51.262;6.336;2023-07-20T11:10:14;100945.41;;;20.66;54.95
80777;BME280;70169;51.262;6.336;2023-07-20T11:12:33;100938.91;;;20.62;55.80
80777;BME280;70169;51.262;6.336;2023-07-20T11:14:59;100945.19;;;20.77;53.84
80777;BME280;70169;51.262;6.336;2023-07-20T11:17:15;100948.22;;;21.02;52.52
80777;BME280;70169;51.262;6.336;2023-07-20T11:19:31;100938.34;;;21.18;51.33
80777;BME280;70169;51.262;6.336;2023-07-20T11:21:49;100941.34;;;21.42;52.41
80777;BME280;70169;51.262;6.336;2023-07-20T11:24:05;100936.25;;;21.51;50.07
80777;BME280;70169;51.262;6.336;2023-07-20T11:26:21;100941.38;;;21.57;50.81
80777;BME280;70169;51.262;6.336;2023-07-20T11:28:36;100938.69;;;21.57;50.07
80777;BME280;70169;51.262;6.336;2023-07-20T11:30:52;100934.41;;;21.51;52.10
80777;BME280;70169;51.262;6.336;2023-07-20T11:33:09;100930.88;;;21.51;52.51
80777;BME280;70169;51.262;6.336;2023-07-20T11:35:24;100935.44;;;21.40;53.60
80777;BME280;70169;51.262;6.336;2023-07-20T11:37:40;100935.66;;;21.23;53.39
80777;BME280;70169;51.262;6.336;2023-07-20T11:39:56;100933.16;;;21.01;53.91
80777;BME280;70169;51.262;6.336;2023-07-20T11:42:12;100936.63;;;20.86;54.03
80777;BME280;70169;51.262;6.336;2023-07-20T11:44:29;100937.94;;;20.78;53.93
80777;BME280;70169;51.262;6.336;2023-07-20T11:46:44;100927.19;;;20.83;54.53
80777;BME280;70169;51.262;6.336;2023-07-20T11:49:01;100928.63;;;21.01;55.29
80777;BME280;70169;51.262;6.336;2023-07-20T11:51:17;100928.91;;;21.20;55.16
80777;BME280;70169;51.262;6.336;2023-07-20T11:53:32;100931.13;;;21.39;54.82
80777;BME280;70169;51.262;6.336;2023-07-20T11:55:52;100922.28;;;21.59;54.37
80777;BME280;70169;51.262;6.336;2023-07-20T11:58:08;100919.84;;;21.57;52.43
80777;BME280;70169;51.262;6.336;2023-07-20T12:00:24;100921.47;;;21.53;52.06
80777;BME280;70169;51.262;6.336;2023-07-20T12:02:40;100921.47;;;21.53;51.83
80777;BME280;70169;51.262;6.336;2023-07-20T12:04:56;100916.91;;;21.54;52.09
80777;BME280;70169;51.262;6.336;2023-07-20T12:07:12;100912.34;;;21.59;52.50
80777;BME280;70169;51.262;6.336;2023-07-20T12:09:28;100914.19;;;21.79;52.10